CheckWX is a tool to help pilots better visualize weather data.  It is not intended as a substitute for an official pre-flight weather briefing.

16:56:47 UTC

LIRN TAF
Naples International Airport
Nápoli, Italy
TAF LIRN 181100Z 1812/1912 21010KT CAVOK BECMG 1816/1818 VRB05KT

Jun-18@
12:00 UTC

Jun-18 @ 12:00 UTC

Jun-18@
16:00 UTC

Jun-18 @ 16:00 UTC

TAF LIRN 181100Z 1812/1912 21010KT CAVOK

Expired

Wind
  • 210° at 10 KTS
Conditions
No significant weather
Cloud Levels
  • No significant clouds

Jun-18@
16:00 UTC

Jun-18 @ 16:00 UTC

Jun-19@
12:00 UTC

Jun-19 @ 12:00 UTC

BECMG 1816/1818 VRB05KT

Becoming

Becoming Conditions expected by Tue, Jun 18, 2019 @ 18:00 UTC

Wind
  • Variable at 5 KTS
Conditions
No significant weather
Cloud Levels
  • No significant clouds